This is the latest recevied weather packets stored in our database for station/object LRIA. If no packets are shown the sender has not sent any weather packets the latest 1 day(s).
| Time | Temp. | Humidity | Pressure | Rain* | Wind** | Luminosity | Snow |
|---|---|---|---|---|---|---|---|
| 1778029403 | 11.11° C | 62% | 1013 hPa | - | 3.58 m/s, 120° | - | - |
| 1778028503 | 11.11° C | 67% | 1013 hPa | - | 3.58 m/s, 120° | - | - |
| 1778027681 | 11.11° C | 67% | 1013 hPa | - | 3.58 m/s, 120° | - | - |
| 1778026704 | 11.11° C | 72% | 1013 hPa | - | 4.02 m/s, 120° | - | - |
| 1778025804 | 11.11° C | 72% | 1013 hPa | - | 4.02 m/s, 120° | - | - |
| 1778024903 | 12.22° C | 67% | 1013 hPa | - | 4.47 m/s, 110° | - | - |
| 1778024003 | 12.22° C | 67% | 1013 hPa | - | 4.47 m/s, 110° | - | - |
| 1778023103 | 12.22° C | 67% | 1013 hPa | - | 4.92 m/s, 110° | - | - |
| 1778022203 | 12.22° C | 67% | 1013 hPa | - | 4.92 m/s, 110° | - | - |
| 1778021303 | 12.78° C | 63% | 1013 hPa | - | 4.92 m/s, 110° | - | - |
| 1778020403 | 12.78° C | 63% | 1013 hPa | - | 4.92 m/s, 110° | - | - |
| 1778019500 | 13.89° C | 59% | 1013 hPa | - | 4.92 m/s, 110° | - | - |
| 1778018603 | 13.89° C | 59% | 1013 hPa | - | 4.92 m/s, 110° | - | - |
| 1778017704 | 13.89° C | 59% | 1013 hPa | - | 4.02 m/s, 100° | - | - |
| 1778016803 | 13.89° C | 59% | 1013 hPa | - | 4.02 m/s, 100° | - | - |
| 1778015903 | 16.11° C | 52% | 1013 hPa | - | 2.68 m/s, 90° | - | - |
| 1778015003 | 16.11° C | 52% | 1013 hPa | - | 2.68 m/s, 90° | - | - |
| 1778014105 | 17.78° C | 43% | 1013 hPa | - | 1.34 m/s, 130° | - | - |
| 1778013203 | 17.78° C | 43% | 1013 hPa | - | 1.34 m/s, 130° | - | - |
| 1778010503 | 20° C | 38% | 1012 hPa | - | 1.34 m/s, 230° | - | - |
| 1778009603 | 20° C | 38% | 1012 hPa | - | 1.34 m/s, 230° | - | - |
| 1778008703 | 20° C | 38% | 1012 hPa | - | 3.13 m/s, 180° | - | - |
| 1778007803 | 20° C | 38% | 1012 hPa | - | 3.13 m/s, 180° | - | - |
| 1778006904 | 21.11° C | 35% | 1012 hPa | - | 3.13 m/s, 180° | - | - |
| 1778006004 | 21.11° C | 35% | 1012 hPa | - | 3.13 m/s, 180° | - | - |
* Rain since midnight (hover to see other rain measurements)
** Current wind speed in m/s (hover to see current wind gust speed)